Time;durP1;ratioP1;P1;durP2;ratioP2;P2;SDS_P1;SDS_P2;PMS_P1;PMS_P2;Temp;Humidity;BMP_temperature;BMP_pressure;BME280_temperature;BME280_humidity;BME280_pressure;Samples;Min_cycle;Max_cycle;Signal;HPM_P1;HPM_P2
2022/04/16 00:02:05;;;;;;;13.95;9.27;;;9.10;99.90;;;;;;5089633;28;20544;-79
2022/04/16 00:04:31;;;;;;;15.40;8.75;;;7.80;99.90;;;;;;5106932;28;20047;-79
2022/04/16 00:06:57;;;;;;;13.38;9.50;;;7.80;99.90;;;;;;5108344;28;20051;-77
2022/04/16 00:09:23;;;;;;;16.15;9.60;;;6.60;99.90;;;;;;5107015;28;20047;-77
2022/04/16 00:11:49;;;;;;;13.95;9.38;;;8.00;99.90;;;;;;5089819;28;20054;-77
2022/04/16 00:14:15;;;;;;;14.02;8.63;;;7.50;99.90;;;;;;5107749;28;20062;-77
2022/04/16 00:16:41;;;;;;;18.17;8.82;;;8.80;99.90;;;;;;5107581;28;20123;-78
2022/04/16 00:19:09;;;;;;;16.20;9.35;;;8.20;99.90;;;;;;5089214;28;20058;-78
2022/04/16 00:21:38;;;;;;;14.77;9.38;;;8.30;99.90;;;;;;5088301;28;20031;-78
2022/04/16 00:24:04;;;;;;;16.45;9.43;;;7.50;99.90;;;;;;5089556;28;20582;-78
2022/04/16 00:26:30;;;;;;;15.02;9.40;;;7.20;99.90;;;;;;5106784;28;20394;-78
2022/04/16 00:28:58;;;;;;;14.20;8.93;;;7.10;99.90;;;;;;5107803;28;20043;-78
2022/04/16 00:31:24;;;;;;;17.33;10.15;;;8.30;99.90;;;;;;5106743;28;20079;-79
2022/04/16 00:33:49;;;;;;;15.10;8.70;;;8.20;99.90;;;;;;5107069;28;20089;-78
2022/04/16 00:36:15;;;;;;;18.30;9.15;;;6.90;99.90;;;;;;5088900;28;20052;-78
2022/04/16 00:38:42;;;;;;;20.40;11.07;;;6.80;99.90;;;;;;5106408;28;20035;-78
2022/04/16 00:41:08;;;;;;;15.77;10.00;;;6.80;99.90;;;;;;5107421;28;20075;-78
2022/04/16 00:43:34;;;;;;;14.98;10.52;;;6.80;99.90;;;;;;5106568;28;20112;-79
2022/04/16 00:45:59;;;;;;;20.40;11.13;;;8.00;99.90;;;;;;5107642;28;20042;-78
2022/04/16 00:48:26;;;;;;;24.48;11.32;;;8.00;99.90;;;;;;5106573;28;20050;-78
2022/04/16 00:50:54;;;;;;;22.55;11.02;;;7.70;99.90;;;;;;5106559;28;20051;-77
2022/04/16 00:53:21;;;;;;;18.80;11.18;;;6.80;99.90;;;;;;5107364;28;20055;-78
2022/04/16 00:55:47;;;;;;;17.15;11.07;;;6.50;99.90;;;;;;5105302;28;20040;-78
2022/04/16 00:58:13;;;;;;;16.77;9.77;;;6.80;99.90;;;;;;5107200;28;20798;-78
2022/04/16 01:00:38;;;;;;;14.77;9.60;;;6.80;99.90;;;;;;5087926;28;20315;-78
2022/04/16 01:03:05;;;;;;;19.13;10.60;;;6.70;99.90;;;;;;5088887;28;20058;-78
2022/04/16 01:05:31;;;;;;;18.25;10.95;;;6.70;99.90;;;;;;5088763;28;20490;-78
2022/04/16 01:07:59;;;;;;;21.85;12.40;;;6.70;99.90;;;;;;5106993;28;20047;-77
2022/04/16 01:10:27;;;;;;;21.05;10.40;;;6.70;99.90;;;;;;5108821;28;20046;-78
2022/04/16 01:12:57;;;;;;;19.98;12.10;;;6.80;99.90;;;;;;5110905;28;20321;-78
2022/04/16 01:15:23;;;;;;;25.65;13.27;;;6.80;99.90;;;;;;5109335;28;20100;-78
2022/04/16 01:17:51;;;;;;;15.93;11.20;;;6.80;99.90;;;;;;5106242;28;20044;-79
2022/04/16 01:20:18;;;;;;;16.73;11.65;;;6.90;99.90;;;;;;5107011;28;20040;-79
2022/04/16 01:22:48;;;;;;;18.92;13.05;;;6.90;99.90;;;;;;5106379;28;20035;-77
2022/04/16 01:25:14;;;;;;;19.27;12.35;;;6.90;99.90;;;;;;5087794;28;20062;-77
2022/04/16 01:27:43;;;;;;;23.67;12.27;;;7.00;99.90;;;;;;5107270;28;20039;-77
2022/04/16 01:30:14;;;;;;;18.58;12.05;;;8.20;99.90;;;;;;5105873;28;20122;-77
2022/04/16 01:32:40;;;;;;;22.20;12.25;;;7.00;99.90;;;;;;5071953;28;20047;-77
2022/04/16 01:35:07;;;;;;;18.90;11.30;;;6.60;99.90;;;;;;5106221;28;20043;-77
2022/04/16 01:37:35;;;;;;;22.33;12.20;;;7.00;99.90;;;;;;5106394;28;20059;-78
2022/04/16 01:40:03;;;;;;;18.42;12.13;;;8.50;99.90;;;;;;5088233;28;20044;-78
2022/04/16 01:42:29;;;;;;;17.35;10.80;;;7.00;99.90;;;;;;5106130;28;20329;-79
2022/04/16 01:45:02;;;;;;;19.08;11.35;;;7.00;99.90;;;;;;5107325;28;20090;-78
2022/04/16 01:47:28;;;;;;;19.70;13.10;;;7.00;99.90;;;;;;5106177;28;20104;-80
2022/04/16 01:49:55;;;;;;;18.67;12.18;;;8.10;99.90;;;;;;5107179;28;20043;-76
2022/04/16 01:52:24;;;;;;;21.20;11.80;;;8.10;99.90;;;;;;5106441;28;20062;-77
2022/04/16 01:54:53;;;;;;;21.20;11.82;;;6.90;99.90;;;;;;5106628;28;20040;-78
2022/04/16 01:57:19;;;;;;;17.20;11.88;;;6.80;99.90;;;;;;5107016;28;20409;-76
2022/04/16 01:59:48;;;;;;;23.08;12.95;;;8.10;99.90;;;;;;5105738;28;20054;-78
2022/04/16 02:02:15;;;;;;;21.15;10.90;;;8.00;99.90;;;;;;5106707;28;20043;-77
2022/04/16 02:04:41;;;;;;;23.92;12.50;;;7.60;99.90;;;;;;5106065;28;20044;-79
2022/04/16 02:07:08;;;;;;;21.27;12.60;;;6.70;99.90;;;;;;5108657;28;20483;-77
2022/04/16 02:09:34;;;;;;;21.20;12.48;;;6.60;99.90;;;;;;5110092;28;20085;-79
2022/04/16 02:12:00;;;;;;;20.60;12.20;;;6.70;99.90;;;;;;5110087;28;20051;-79
2022/04/16 02:14:25;;;;;;;24.35;13.02;;;8.00;99.90;;;;;;5074948;28;20031;-77
2022/04/16 02:16:51;;;;;;;20.25;13.45;;;6.60;99.90;;;;;;5109145;28;20034;-78
2022/04/16 02:19:17;;;;;;;23.42;12.02;;;6.60;99.90;;;;;;5110257;28;20138;-78
2022/04/16 02:21:43;;;;;;;20.08;13.93;;;7.20;99.90;;;;;;5091142;28;20055;-78
2022/04/16 02:24:10;;;;;;;21.10;12.63;;;6.70;99.90;;;;;;5110014;28;20069;-78
2022/04/16 02:26:37;;;;;;;23.75;14.02;;;7.90;99.90;;;;;;5109413;28;20050;-78
2022/04/16 02:29:04;;;;;;;27.98;15.10;;;6.80;99.90;;;;;;5109676;28;20059;-78
2022/04/16 02:31:30;;;;;;;24.50;13.85;;;8.00;99.90;;;;;;5110094;28;20054;-78
2022/04/16 02:33:56;;;;;;;23.77;15.07;;;6.90;99.90;;;;;;5111139;28;20039;-78
2022/04/16 02:36:25;;;;;;;24.70;14.85;;;7.00;99.90;;;;;;5095492;28;20060;-78
2022/04/16 02:38:52;;;;;;;23.85;15.23;;;8.40;99.90;;;;;;5119131;28;20048;-78
2022/04/16 02:41:19;;;;;;;24.23;15.48;;;8.40;99.90;;;;;;5114302;28;20490;-78
2022/04/16 02:43:45;;;;;;;30.15;16.40;;;7.20;99.90;;;;;;5109700;28;20444;-78
2022/04/16 02:48:55;;;;;;;26.70;16.25;;;8.40;99.90;;;;;;5109769;28;20065;-77
2022/04/16 02:51:22;;;;;;;28.35;16.25;;;8.80;99.90;;;;;;5108731;28;20047;-79
2022/04/16 02:53:47;;;;;;;26.95;15.40;;;7.50;99.90;;;;;;5109927;28;20058;-78
2022/04/16 02:56:13;;;;;;;25.85;15.77;;;7.60;99.90;;;;;;5109099;28;20035;-78
2022/04/16 02:58:39;;;;;;;27.38;15.82;;;7.60;99.90;;;;;;5109306;28;20516;-79
2022/04/16 03:01:05;;;;;;;29.88;15.32;;;9.00;99.90;;;;;;5109431;28;20040;-77
2022/04/16 03:03:31;;;;;;;23.35;15.77;;;7.80;99.90;;;;;;5057122;28;20043;-78
2022/04/16 03:05:56;;;;;;;31.40;16.65;;;8.70;99.90;;;;;;5109763;28;20078;-79
2022/04/16 03:08:24;;;;;;;27.65;16.90;;;8.90;99.90;;;;;;5108406;28;20047;-78
2022/04/16 03:10:51;;;;;;;26.80;18.17;;;7.90;99.90;;;;;;5074448;28;20559;-78
2022/04/16 03:13:18;;;;;;;26.88;16.77;;;8.00;99.90;;;;;;5108724;28;20088;-78
2022/04/16 03:18:27;;;;;;;27.60;16.80;;;9.30;99.90;;;;;;5108136;28;20090;-79
2022/04/16 03:20:54;;;;;;;26.20;16.48;;;8.40;99.90;;;;;;5108150;28;20082;-79
2022/04/16 03:23:20;;;;;;;25.58;16.05;;;8.10;99.90;;;;;;5109750;28;20044;-79
2022/04/16 03:25:46;;;;;;;26.95;16.48;;;8.10;99.90;;;;;;5108558;28;20132;-79
2022/04/16 03:28:12;;;;;;;28.48;16.92;;;8.10;99.90;;;;;;5108850;28;20044;-78
2022/04/16 03:30:38;;;;;;;27.23;16.88;;;9.60;99.90;;;;;;5108581;28;20085;-78
2022/04/16 03:33:04;;;;;;;27.40;15.93;;;9.20;99.90;;;;;;5090102;28;20039;-78
2022/04/16 03:35:30;;;;;;;30.13;15.98;;;8.10;99.90;;;;;;5108826;28;20431;-78
2022/04/16 03:37:57;;;;;;;23.42;15.55;;;8.10;99.90;;;;;;5108183;28;20142;-78
2022/04/16 03:40:24;;;;;;;25.55;16.52;;;8.20;99.90;;;;;;5108575;28;20046;-78
2022/04/16 03:42:58;;;;;;;27.48;16.70;;;8.10;99.90;;;;;;5073071;28;20047;-78
2022/04/16 03:45:29;;;;;;;31.27;18.40;;;8.20;99.90;;;;;;5090140;28;20047;-77
2022/04/16 03:47:56;;;;;;;29.75;18.27;;;8.10;99.90;;;;;;5108322;28;20058;-78
2022/04/16 03:50:24;;;;;;;28.10;17.60;;;8.20;99.90;;;;;;5107870;28;20044;-78
2022/04/16 03:52:51;;;;;;;28.42;16.85;;;8.40;99.90;;;;;;5108549;28;20372;-78
2022/04/16 04:00:49;;;;;;;27.27;17.67;;;8.10;99.90;;;;;;5090877;28;20631;-78
2022/04/16 04:03:15;;;;;;;29.60;18.40;;;8.50;99.90;;;;;;5091986;28;20083;-78
2022/04/16 04:05:42;;;;;;;31.92;18.40;;;8.00;99.90;;;;;;5111511;28;20051;-79
2022/04/16 04:08:09;;;;;;;31.73;19.33;;;7.90;99.90;;;;;;5108472;28;20043;-77
2022/04/16 04:10:35;;;;;;;31.13;19.52;;;8.50;99.90;;;;;;5073528;28;20039;-78
2022/04/16 04:13:02;;;;;;;34.75;20.35;;;7.90;99.90;;;;;;5072457;28;20051;-78
2022/04/16 04:15:29;;;;;;;30.63;18.83;;;9.20;99.90;;;;;;5108143;28;20043;-78
2022/04/16 04:17:55;;;;;;;35.65;21.00;;;8.80;99.90;;;;;;5107924;28;20086;-78
2022/04/16 04:20:21;;;;;;;31.88;19.83;;;7.80;99.90;;;;;;5089273;28;20051;-78
2022/04/16 04:22:46;;;;;;;30.73;19.67;;;7.80;99.90;;;;;;5090053;28;20383;-78
2022/04/16 04:25:12;;;;;;;31.35;19.77;;;8.50;99.90;;;;;;5088898;28;20069;-78
2022/04/16 04:27:38;;;;;;;28.00;18.80;;;7.70;99.90;;;;;;5089802;28;20036;-78
2022/04/16 04:30:04;;;;;;;34.65;20.88;;;7.70;99.90;;;;;;5088803;28;20046;-78
2022/04/16 04:32:31;;;;;;;34.85;20.02;;;7.70;99.90;;;;;;5107501;28;20075;-78
2022/04/16 04:34:57;;;;;;;29.80;20.27;;;7.70;99.90;;;;;;5107614;28;20466;-77
2022/04/16 04:37:23;;;;;;;31.42;19.45;;;8.80;99.90;;;;;;5067706;28;20051;-78
2022/04/16 04:39:49;;;;;;;33.35;20.40;;;8.30;99.90;;;;;;5085898;28;20072;-78
2022/04/16 04:42:29;;;;;;;34.33;20.60;;;8.90;99.90;;;;;;5084845;28;20048;-78
2022/04/16 04:44:55;;;;;;;31.42;19.27;;;7.80;99.90;;;;;;5087073;28;20093;-78
2022/04/16 04:47:21;;;;;;;32.70;18.83;;;7.70;99.90;;;;;;5086551;28;20074;-78
2022/04/16 04:49:47;;;;;;;28.80;18.77;;;7.60;99.90;;;;;;5085326;28;20052;-79
2022/04/16 04:52:26;;;;;;;28.30;18.65;;;7.60;99.90;;;;;;5085523;28;20036;-78
2022/04/16 04:55:00;;;;;;;29.25;17.25;;;7.60;99.90;;;;;;5085302;28;20487;-79
2022/04/16 04:57:26;;;;;;;30.38;18.55;;;7.60;99.90;;;;;;5085677;28;20495;-78
2022/04/16 04:59:52;;;;;;;31.65;18.95;;;8.80;99.90;;;;;;5086466;28;20205;-78
2022/04/16 05:02:18;;;;;;;29.00;18.00;;;8.30;99.90;;;;;;5086688;28;20075;-78
2022/04/16 05:04:44;;;;;;;30.60;17.83;;;7.70;99.90;;;;;;5085002;28;20044;-78
2022/04/16 05:07:10;;;;;;;27.58;17.83;;;8.10;99.90;;;;;;5085918;28;20036;-78
2022/04/16 05:09:36;;;;;;;30.95;18.08;;;8.70;99.90;;;;;;5086511;28;20410;-78
2022/04/16 05:12:03;;;;;;;25.23;16.60;;;9.10;99.90;;;;;;5085879;28;20043;-78
2022/04/16 05:14:29;;;;;;;25.17;16.95;;;7.70;99.90;;;;;;5068764;28;20043;-78
2022/04/16 05:16:54;;;;;;;28.27;16.98;;;7.70;99.90;;;;;;5068340;28;20046;-78
2022/04/16 05:19:20;;;;;;;23.27;14.20;;;7.70;99.90;;;;;;5085041;28;20498;-78
2022/04/16 05:21:46;;;;;;;22.75;13.57;;;9.10;99.90;;;;;;5086635;28;20040;-78
2022/04/16 05:24:12;;;;;;;23.23;13.32;;;9.10;99.90;;;;;;5085971;28;20036;-79
2022/04/16 05:26:38;;;;;;;21.40;12.85;;;7.80;99.90;;;;;;5087847;28;20040;-78
2022/04/16 05:29:05;;;;;;;21.65;13.48;;;9.20;99.90;;;;;;5088707;28;20047;-79
2022/04/16 05:31:31;;;;;;;25.98;14.48;;;8.50;99.90;;;;;;5090139;28;20036;-77
2022/04/16 05:36:42;;;;;;;19.38;12.73;;;9.20;99.90;;;;;;5094026;28;20056;-78
2022/04/16 05:39:08;;;;;;;24.73;13.77;;;7.90;99.90;;;;;;5106685;28;20051;-78
2022/04/16 05:41:34;;;;;;;22.73;13.65;;;7.90;99.90;;;;;;5106902;28;20043;-77
2022/04/16 05:44:03;;;;;;;20.95;13.55;;;7.90;99.90;;;;;;5111122;28;20088;-77
2022/04/16 05:46:29;;;;;;;23.23;13.93;;;7.90;99.90;;;;;;5109851;28;20169;-79
2022/04/16 05:48:55;;;;;;;23.52;14.70;;;8.00;99.90;;;;;;5110683;28;20126;-78
2022/04/16 05:51:22;;;;;;;29.80;15.50;;;8.00;99.90;;;;;;5110746;28;20095;-78
2022/04/16 05:53:49;;;;;;;29.98;14.57;;;8.00;99.90;;;;;;5092072;28;20328;-78
2022/04/16 05:56:16;;;;;;;23.27;14.50;;;8.10;99.90;;;;;;5110571;28;20071;-78
2022/04/16 05:58:42;;;;;;;23.45;14.20;;;8.10;99.90;;;;;;5109829;28;20040;-78
2022/04/16 06:01:09;;;;;;;21.65;13.85;;;9.00;99.90;;;;;;5110768;28;20040;-78
2022/04/16 06:03:36;;;;;;;24.48;14.27;;;8.80;99.90;;;;;;5110059;28;20063;-78
2022/04/16 06:06:03;;;;;;;26.13;14.23;;;8.90;99.90;;;;;;5092180;28;20126;-78
2022/04/16 06:08:29;;;;;;;25.27;13.88;;;8.10;99.90;;;;;;5091642;28;20043;-79
2022/04/16 06:10:55;;;;;;;29.98;14.57;;;9.40;99.90;;;;;;5110396;28;20038;-78
2022/04/16 06:13:21;;;;;;;24.60;13.55;;;8.20;99.90;;;;;;5110041;28;20032;-79
2022/04/16 06:15:46;;;;;;;27.42;13.27;;;8.20;99.90;;;;;;5091314;28;20040;-78
2022/04/16 06:18:12;;;;;;;22.00;12.68;;;8.20;99.90;;;;;;5091939;28;20394;-78
2022/04/16 06:20:38;;;;;;;21.27;12.57;;;8.40;99.90;;;;;;5109610;28;20047;-78
2022/04/16 06:23:05;;;;;;;20.80;13.00;;;8.30;99.90;;;;;;5110511;28;20042;-78
2022/04/16 06:25:31;;;;;;;20.98;12.15;;;9.70;99.90;;;;;;5092245;28;20056;-78
2022/04/16 06:27:57;;;;;;;22.25;12.35;;;8.50;99.90;;;;;;5091317;28;20123;-77
2022/04/16 06:30:23;;;;;;;18.80;11.68;;;8.50;99.90;;;;;;5109737;28;20482;-78
2022/04/16 06:32:48;;;;;;;24.90;13.43;;;9.00;99.90;;;;;;5108995;28;20046;-78
2022/04/16 06:35:14;;;;;;;21.55;12.38;;;8.20;99.90;;;;;;5110195;28;20071;-77
2022/04/16 06:37:41;;;;;;;19.30;12.05;;;9.40;99.90;;;;;;5108708;28;20062;-78
2022/04/16 06:40:10;;;;;;;18.90;11.70;;;10.00;99.90;;;;;;5091311;28;20055;-78
2022/04/16 06:42:36;;;;;;;18.73;11.57;;;8.90;99.90;;;;;;5109170;28;20078;-78
2022/04/16 06:45:05;;;;;;;18.60;11.20;;;10.00;99.90;;;;;;5109469;28;20044;-78
2022/04/16 06:47:31;;;;;;;22.35;12.10;;;9.00;99.90;;;;;;5109779;28;20697;-78
2022/04/16 06:49:57;;;;;;;20.88;11.27;;;9.90;99.90;;;;;;5108634;28;20384;-78
2022/04/16 06:52:23;;;;;;;20.85;11.07;;;9.80;99.90;;;;;;5092128;28;20042;-78
2022/04/16 06:54:49;;;;;;;21.42;11.93;;;9.00;99.90;;;;;;5108512;28;20577;-78
2022/04/16 06:57:14;;;;;;;18.23;11.02;;;9.10;99.90;;;;;;5111046;28;20054;-78
2022/04/16 06:59:40;;;;;;;19.08;11.45;;;10.30;99.90;;;;;;5113176;28;20050;-78
2022/04/16 07:02:08;;;;;;;16.65;11.05;;;9.20;99.90;;;;;;5110317;28;20039;-77
2022/04/16 07:04:34;;;;;;;19.42;10.63;;;10.30;99.90;;;;;;5109134;28;20053;-78
2022/04/16 07:07:00;;;;;;;19.08;10.68;;;9.40;99.90;;;;;;5108089;28;20040;-79
2022/04/16 07:09:26;;;;;;;19.92;10.82;;;9.40;99.90;;;;;;5109378;28;20043;-78
2022/04/16 07:11:52;;;;;;;18.80;10.45;;;9.70;99.90;;;;;;5108448;28;20040;-79
2022/04/16 07:14:19;;;;;;;18.52;10.02;;;10.10;99.90;;;;;;5109051;28;20036;-78
2022/04/16 07:16:45;;;;;;;17.23;10.07;;;10.60;99.90;;;;;;5108860;28;20055;-78
2022/04/16 07:19:10;;;;;;;16.77;9.40;;;9.50;99.90;;;;;;5108708;28;20040;-78
2022/04/16 07:21:36;;;;;;;20.20;9.77;;;9.50;99.90;;;;;;5109204;28;20040;-81
2022/04/16 07:24:01;;;;;;;17.10;8.95;;;9.60;99.90;;;;;;5108127;28;20044;-78
2022/04/16 07:26:27;;;;;;;17.08;9.82;;;9.60;99.90;;;;;;5108954;28;20426;-78
2022/04/16 07:28:53;;;;;;;18.05;8.73;;;10.10;99.90;;;;;;5109577;28;20039;-78
2022/04/16 07:31:19;;;;;;;21.77;9.38;;;9.70;99.90;;;;;;5110790;28;20051;-78
2022/04/16 07:33:45;;;;;;;16.77;9.88;;;9.70;99.90;;;;;;5092331;28;20035;-77
2022/04/16 07:36:11;;;;;;;15.52;9.50;;;9.80;99.90;;;;;;5110570;28;20048;-78
2022/04/16 07:38:37;;;;;;;18.33;9.50;;;10.70;99.90;;;;;;5111091;28;20475;-78
2022/04/16 07:41:03;;;;;;;16.77;8.77;;;11.30;99.90;;;;;;5109912;28;20040;-77
2022/04/16 07:43:29;;;;;;;19.20;8.70;;;11.30;99.90;;;;;;5092658;28;20087;-79
2022/04/16 07:45:55;;;;;;;14.52;8.57;;;10.00;99.90;;;;;;5091594;28;20494;-77
2022/04/16 07:48:21;;;;;;;14.02;8.40;;;10.10;99.90;;;;;;5110689;28;20089;-78
2022/04/16 07:50:47;;;;;;;13.68;7.90;;;11.30;99.90;;;;;;5110819;28;20044;-78
2022/04/16 07:53:13;;;;;;;14.63;7.95;;;10.10;99.90;;;;;;5075864;28;20035;-77
2022/04/16 07:55:39;;;;;;;13.68;7.55;;;10.10;99.90;;;;;;5092494;28;20043;-77
2022/04/16 07:58:05;;;;;;;13.93;7.13;;;10.20;99.90;;;;;;5110446;28;20042;-77
2022/04/16 08:00:30;;;;;;;12.23;6.68;;;10.20;99.90;;;;;;5111025;28;20591;-77
2022/04/16 08:02:56;;;;;;;12.32;6.63;;;11.60;99.90;;;;;;5091492;28;20442;-77
2022/04/16 08:05:22;;;;;;;10.75;6.50;;;10.50;99.90;;;;;;5091460;28;20464;-78
2022/04/16 08:07:49;;;;;;;9.80;5.57;;;11.70;99.90;;;;;;5110417;28;20134;-76
2022/04/16 08:10:15;;;;;;;12.82;6.40;;;11.10;99.90;;;;;;5092272;28;20500;-77
2022/04/16 08:12:41;;;;;;;10.25;6.03;;;11.30;99.90;;;;;;5074691;28;20130;-78
2022/04/16 08:15:07;;;;;;;10.40;5.60;;;11.40;99.90;;;;;;5091440;28;20538;-77
2022/04/16 08:17:33;;;;;;;9.50;5.57;;;10.60;99.90;;;;;;5074950;28;20054;-77
2022/04/16 08:19:59;;;;;;;10.10;6.18;;;10.70;99.90;;;;;;5108733;28;20495;-77
2022/04/16 08:22:28;;;;;;;10.13;5.35;;;12.10;99.90;;;;;;5109498;28;20126;-77
2022/04/16 08:27:43;;;;;;;8.20;4.30;;;11.10;99.90;;;;;;5083188;28;20047;-77
2022/04/16 08:30:10;;;;;;;8.15;4.45;;;11.50;99.90;;;;;;5123802;28;20044;-77
2022/04/16 08:32:41;;;;;;;9.38;4.45;;;12.20;99.90;;;;;;5086986;28;20054;-77
2022/04/16 08:35:12;;;;;;;8.88;4.20;;;12.60;99.90;;;;;;5109381;28;20579;-78
2022/04/16 08:37:38;;;;;;;8.23;4.20;;;11.60;99.90;;;;;;5108347;28;20055;-77
2022/04/16 08:40:07;;;;;;;8.85;4.30;;;12.00;99.90;;;;;;5107817;28;20474;-78
2022/04/16 08:42:35;;;;;;;7.10;3.53;;;11.80;99.90;;;;;;5108624;28;20521;-78
2022/04/16 08:45:02;;;;;;;7.90;3.45;;;11.90;99.90;;;;;;5089722;28;20066;-78
2022/04/16 08:47:28;;;;;;;5.85;3.08;;;12.10;99.90;;;;;;5107866;28;20131;-78
2022/04/16 08:49:54;;;;;;;5.82;2.75;;;12.10;99.90;;;;;;5088714;28;20131;-78
2022/04/16 08:52:22;;;;;;;4.63;2.40;;;12.20;99.90;;;;;;5089547;28;20122;-77
2022/04/16 08:54:48;;;;;;;6.15;2.63;;;12.00;99.90;;;;;;5107741;28;20051;-79
2022/04/16 08:57:13;;;;;;;4.55;2.78;;;12.60;99.90;;;;;;5107359;28;20376;-78
2022/04/16 08:59:47;;;;;;;3.75;1.63;;;13.20;99.90;;;;;;5089104;28;20113;-78
2022/04/16 09:02:13;;;;;;;4.68;2.08;;;12.70;99.90;;;;;;5088136;28;20506;-78
2022/04/16 09:04:39;;;;;;;4.63;1.83;;;12.80;99.80;;;;;;5088999;28;20047;-78
2022/04/16 09:07:05;;;;;;;3.50;1.35;;;13.30;99.50;;;;;;5088478;28;20051;-77
2022/04/16 09:09:30;;;;;;;2.42;1.00;;;12.70;97.50;;;;;;5107843;28;20040;-77
2022/04/16 09:11:56;;;;;;;1.27;0.52;;;11.70;95.50;;;;;;5089186;28;20509;-77
2022/04/16 09:14:35;;;;;;;1.67;0.93;;;13.00;93.50;;;;;;5107278;28;20036;-77
2022/04/16 09:17:01;;;;;;;2.55;1.25;;;13.80;76.30;;;;;;5071548;28;20074;-78
2022/04/16 09:19:30;;;;;;;2.63;1.15;;;12.60;91.50;;;;;;5088071;28;20495;-76
2022/04/16 09:21:58;;;;;;;1.48;0.82;;;12.60;89.30;;;;;;5108529;28;20050;-77
2022/04/16 09:24:23;;;;;;;1.95;0.90;;;12.60;88.00;;;;;;5072074;28;20558;-77
2022/04/16 09:26:55;;;;;;;3.08;0.98;;;12.60;86.00;;;;;;5106975;28;20131;-77
2022/04/16 09:29:24;;;;;;;1.50;0.50;;;12.70;85.80;;;;;;5107508;28;20126;-77
2022/04/16 09:31:51;;;;;;;1.60;0.70;;;12.80;83.30;;;;;;5106993;28;20051;-78
2022/04/16 09:34:22;;;;;;;1.05;0.43;;;12.60;79.30;;;;;;5107603;28;20402;-78
2022/04/16 09:36:48;;;;;;;3.03;0.40;;;13.00;67.40;;;;;;5088106;28;20055;-77
2022/04/16 09:39:14;;;;;;;1.63;0.55;;;13.80;70.70;;;;;;5088762;28;20498;-78
2022/04/16 09:41:41;;;;;;;1.30;0.40;;;14.20;69.80;;;;;;5107281;28;20100;-78
2022/04/16 09:44:20;;;;;;;1.60;0.50;;;13.50;67.40;;;;;;5106679;28;20135;-78
2022/04/16 09:46:47;;;;;;;1.55;0.45;;;13.70;63.90;;;;;;5107234;28;20483;-77
2022/04/16 09:49:14;;;;;;;0.90;0.40;;;14.80;66.10;;;;;;5106320;28;20044;-78
2022/04/16 09:51:45;;;;;;;2.13;0.32;;;14.10;63.70;;;;;;5107331;28;20055;-76
2022/04/16 09:54:12;;;;;;;0.50;0.20;;;14.60;62.80;;;;;;5088928;28;20044;-78
2022/04/16 09:56:40;;;;;;;0.70;0.20;;;14.30;62.10;;;;;;5106441;28;20052;-78
2022/04/16 09:59:12;;;;;;;0.80;0.25;;;14.40;60.70;;;;;;5106744;28;20044;-77
2022/04/16 10:01:47;;;;;;;0.57;0.30;;;14.20;59.20;;;;;;5089118;28;20040;-77
2022/04/16 10:04:16;;;;;;;0.70;0.40;;;14.20;59.10;;;;;;5108961;28;20398;-78
2022/04/16 10:06:41;;;;;;;0.68;0.22;;;15.00;60.30;;;;;;5110376;28;20117;-77
2022/04/16 10:09:22;;;;;;;0.68;0.30;;;14.90;60.90;;;;;;5093202;28;20044;-77
2022/04/16 10:15:00;;;;;;;0.93;0.40;;;14.10;58.60;;;;;;5106150;28;20047;-78
2022/04/16 10:17:39;;;;;;;0.57;0.30;;;14.10;56.90;;;;;;5106766;28;20035;-77
2022/04/16 10:20:31;;;;;;;0.68;0.30;;;14.10;59.30;;;;;;5106399;28;20509;-77
2022/04/16 10:22:58;;;;;;;1.10;0.32;;;14.30;50.60;;;;;;5100935;28;20083;-77
2022/04/16 10:25:35;;;;;;;1.27;0.50;;;14.30;58.30;;;;;;5106309;28;20043;-77
2022/04/16 10:28:10;;;;;;;1.40;0.30;;;14.30;55.80;;;;;;5088923;28;20043;-78
2022/04/16 10:30:41;;;;;;;0.75;0.25;;;14.30;56.20;;;;;;5110230;28;20039;-78
2022/04/16 10:33:21;;;;;;;2.15;0.50;;;14.20;57.40;;;;;;5110280;28;20047;-78
2022/04/16 10:35:56;;;;;;;0.80;0.30;;;14.30;53.00;;;;;;5109258;28;20032;-78
2022/04/16 10:38:37;;;;;;;1.17;0.20;;;14.30;53.90;;;;;;5109957;28;20131;-78
2022/04/16 10:41:19;;;;;;;0.80;0.30;;;14.40;55.30;;;;;;5076123;28;20048;-78
2022/04/16 10:43:54;;;;;;;8.48;0.57;;;14.30;51.10;;;;;;5091297;28;20075;-78
2022/04/16 10:46:20;;;;;;;0.88;0.30;;;14.40;54.40;;;;;;5109861;28;20052;-77
2022/04/16 10:48:45;;;;;;;0.65;0.32;;;14.60;54.80;;;;;;5109009;28;20410;-78
2022/04/16 10:51:11;;;;;;;0.55;0.30;;;15.90;55.00;;;;;;5110312;28;20101;-78
2022/04/16 10:53:39;;;;;;;0.73;0.40;;;14.70;54.90;;;;;;5090892;28;20043;-78
2022/04/16 10:56:22;;;;;;;1.58;0.40;;;14.70;53.60;;;;;;5109588;28;20438;-78
2022/04/16 10:59:00;;;;;;;1.90;0.30;;;14.80;47.40;;;;;;5109658;28;20090;-78
2022/04/16 11:01:26;;;;;;;0.57;0.32;;;15.50;53.30;;;;;;5090867;28;20071;-78
2022/04/16 11:03:55;;;;;;;2.63;0.40;;;15.10;51.90;;;;;;5109873;28;20052;-77
2022/04/16 11:06:32;;;;;;;0.85;0.30;;;15.00;52.20;;;;;;5108648;28;20050;-77
2022/04/16 11:08:58;;;;;;;0.28;0.20;;;15.00;51.10;;;;;;5091445;28;20496;-77
2022/04/16 11:11:24;;;;;;;1.10;0.20;;;14.90;52.10;;;;;;5109147;28;20035;-77
2022/04/16 11:13:50;;;;;;;1.00;0.22;;;15.90;53.10;;;;;;5073443;28;20035;-78
2022/04/16 11:16:22;;;;;;;0.13;0.10;;;15.30;51.20;;;;;;5090598;28;20048;-78
2022/04/16 11:18:48;;;;;;;0.20;0.20;;;15.40;49.70;;;;;;5089846;28;20529;-78
2022/04/16 11:21:23;;;;;;;0.55;0.20;;;15.50;50.10;;;;;;5091282;28;20039;-77
2022/04/16 11:23:51;;;;;;;1.20;0.73;;;15.60;49.30;;;;;;5108601;28;20047;-77
2022/04/16 11:34:49;;;;;;;1.10;0.40;;;16.00;50.20;;;;;;5108948;28;20043;-77
2022/04/16 11:37:15;;;;;;;0.95;0.30;;;16.10;50.20;;;;;;5109110;28;20060;-79
2022/04/16 11:39:41;;;;;;;3.25;0.40;;;16.10;49.90;;;;;;5108664;28;20050;-76
2022/04/16 11:42:08;;;;;;;1.30;0.43;;;16.20;49.20;;;;;;5093327;28;20427;-77
2022/04/16 11:44:38;;;;;;;0.30;0.30;;;16.20;48.80;;;;;;5093515;28;20036;-77
2022/04/16 11:47:17;;;;;;;1.42;0.70;;;16.10;49.20;;;;;;5111721;28;20122;-77
2022/04/16 11:49:51;;;;;;;1.17;0.40;;;16.10;46.80;;;;;;5089752;28;20134;-77
2022/04/16 11:52:26;;;;;;;1.45;0.45;;;16.10;49.20;;;;;;5089300;28;20101;-78
2022/04/16 11:55:08;;;;;;;1.60;0.60;;;16.60;48.80;;;;;;5090465;28;20039;-77
2022/04/16 11:57:34;;;;;;;2.40;0.40;;;16.10;46.60;;;;;;5107335;28;20048;-78
2022/04/16 12:00:05;;;;;;;1.27;0.32;;;16.30;49.30;;;;;;5090056;28;20048;-77
2022/04/16 12:02:33;;;;;;;0.55;0.55;;;16.30;47.60;;;;;;5089832;28;20051;-78
2022/04/16 12:05:15;;;;;;;0.63;0.30;;;16.40;47.20;;;;;;5107587;28;20122;-78
2022/04/16 12:07:43;;;;;;;1.75;0.40;;;16.40;45.50;;;;;;5089627;28;20051;-78
2022/04/16 12:10:11;;;;;;;1.45;0.52;;;16.80;45.80;;;;;;5072378;28;20549;-78
2022/04/16 12:12:48;;;;;;;2.20;0.50;;;16.30;45.50;;;;;;5072608;28;20482;-78
2022/04/16 12:15:29;;;;;;;2.88;0.47;;;16.50;44.50;;;;;;5089211;28;20052;-77
2022/04/16 12:17:57;;;;;;;2.05;0.30;;;16.40;45.50;;;;;;5089409;28;20083;-79
2022/04/16 12:20:24;;;;;;;0.75;0.20;;;16.20;46.60;;;;;;5108406;28;20541;-77
2022/04/16 12:23:03;;;;;;;0.88;0.35;;;16.70;46.00;;;;;;5089142;28;20419;-77
2022/04/16 12:25:30;;;;;;;1.55;0.40;;;16.90;43.40;;;;;;5107976;28;20075;-78
2022/04/16 12:27:57;;;;;;;1.13;0.30;;;17.00;44.80;;;;;;5107357;28;20031;-78
2022/04/16 12:30:26;;;;;;;1.13;0.32;;;17.10;45.00;;;;;;5107356;28;20061;-77
2022/04/16 12:33:03;;;;;;;0.70;0.35;;;17.00;44.20;;;;;;5089428;28;20043;-77
2022/04/16 12:35:33;;;;;;;1.20;0.30;;;17.00;44.80;;;;;;5107093;28;20051;-77
2022/04/16 12:38:00;;;;;;;4.22;0.40;;;17.10;45.30;;;;;;5089314;28;20561;-77
2022/04/16 12:40:27;;;;;;;3.97;0.55;;;17.30;45.70;;;;;;5106872;28;20043;-77
2022/04/16 12:42:54;;;;;;;0.90;0.38;;;17.40;44.50;;;;;;5107653;28;20286;-77
2022/04/16 12:45:22;;;;;;;1.40;0.50;;;17.40;44.00;;;;;;5089218;28;20106;-78
2022/04/16 12:47:48;;;;;;;0.93;0.20;;;16.70;43.40;;;;;;5088773;28;20051;-78
2022/04/16 12:50:14;;;;;;;2.47;0.30;;;17.50;43.40;;;;;;5088944;28;20043;-78
2022/04/16 12:52:40;;;;;;;1.48;0.55;;;17.30;42.90;;;;;;5071081;28;20329;-77
2022/04/16 12:55:07;;;;;;;1.63;0.50;;;17.30;43.70;;;;;;5088806;28;20487;-77
2022/04/16 12:57:33;;;;;;;2.30;0.35;;;17.30;43.80;;;;;;5088807;28;20046;-78
2022/04/16 12:59:59;;;;;;;1.17;0.40;;;17.40;44.00;;;;;;5107268;28;20402;-78
2022/04/16 13:02:25;;;;;;;0.32;0.25;;;17.40;43.30;;;;;;5107574;28;20032;-77
2022/04/16 13:04:51;;;;;;;0.88;0.50;;;17.40;43.00;;;;;;5107937;28;20035;-75
2022/04/16 13:07:17;;;;;;;1.38;0.50;;;17.40;43.20;;;;;;5089984;28;20368;-76
2022/04/16 13:09:43;;;;;;;1.38;0.20;;;17.50;43.00;;;;;;5089644;28;20149;-77
2022/04/16 13:12:09;;;;;;;0.73;0.40;;;17.60;43.20;;;;;;5090634;28;20107;-77